Weather Station Data

Station Data Captured at Five Minute Intervals Since Midnight


Date Time Temp. RH % Dew Pt. Wind Speed Wind Dir. Peak Wind Wind Chill Pressure Precip. Solar W/m2 ET
1/17/19 10:05p 40.0 90 37.3 4.0 W 7.0 37.3 30.049 0.00 0 0.000
1/17/19 10:00p 40.2 90 37.5 4.0 W 8.0 37.5 30.049 0.00 0 0.000
1/17/19 9:55p 40.3 90 37.6 4.0 W 9.0 37.7 30.051 0.00 0 0.000
1/17/19 9:50p 40.4 90 37.7 4.0 W 9.0 37.8 30.050 0.00 0 0.000
1/17/19 9:45p 40.5 90 37.8 3.0 W 7.0 39.0 30.047 0.00 0 0.000
1/17/19 9:40p 40.6 90 37.9 2.0 W 8.0 40.5 30.049 0.00 0 0.000
1/17/19 9:35p 40.7 90 38.0 2.0 W 6.0 40.6 30.055 0.00 0 0.000
1/17/19 9:30p 40.7 90 38.0 4.0 W 10.0 38.1 30.055 0.00 0 0.000
1/17/19 9:25p 40.7 90 38.0 3.0 W 7.0 39.2 30.057 0.00 0 0.000
1/17/19 9:20p 40.8 90 38.1 2.0 WSW 6.0 40.7 30.055 0.00 0 0.000
1/17/19 9:15p 40.8 90 38.1 2.0 S 5.0 40.7 30.049 0.00 0 0.000
1/17/19 9:10p 40.8 90 38.1 2.0 WSW 4.0 40.7 30.040 0.00 0 0.000
1/17/19 9:05p 40.8 90 38.1 2.0 SSW 4.0 40.7 30.038 0.00 0 0.000
1/17/19 9:00p 40.8 90 38.1 2.0 SSW 5.0 40.7 30.039 0.00 0 0.000
1/17/19 8:55p 40.7 90 38.0 2.0 SSW 5.0 40.6 30.036 0.00 0 0.000
1/17/19 8:50p 40.7 90 38.0 2.0 SSW 4.0 40.6 30.031 0.00 0 0.000
1/17/19 8:45p 40.6 90 37.9 2.0 SSW 4.0 40.5 30.030 0.00 0 0.000
1/17/19 8:40p 40.5 90 37.8 1.0 SW 5.0 40.5 30.026 0.00 0 0.000
1/17/19 8:35p 40.5 90 37.8 2.0 SW 5.0 40.3 30.022 0.00 0 0.000
1/17/19 8:30p 40.4 90 37.7 1.0 SSW 3.0 40.4 30.020 0.00 0 0.000
1/17/19 8:25p 40.4 90 37.7 1.0 SSW 3.0 40.4 30.018 0.00 0 0.000
1/17/19 8:20p 40.3 90 37.6 2.0 S 5.0 40.1 30.021 0.00 0 0.000
1/17/19 8:15p 40.3 90 37.6 2.0 S 4.0 40.1 30.019 0.00 0 0.000
1/17/19 8:10p 40.3 90 37.6 2.0 S 3.0 40.1 30.020 0.00 0 0.000
1/17/19 8:05p 40.3 90 37.6 1.0 SSW 3.0 40.3 30.021 0.00 0 0.000
1/17/19 8:00p 40.3 90 37.6 2.0 S 3.0 40.1 30.025 0.00 0 0.000
1/17/19 7:55p 40.2 90 37.5 2.0 SSW 3.0 40.0 30.027 0.00 0 0.000
1/17/19 7:50p 40.2 90 37.5 2.0 SSW 4.0 40.0 30.028 0.00 0 0.000
1/17/19 7:45p 40.2 90 37.5 1.0 SSW 3.0 40.2 30.030 0.00 0 0.000
1/17/19 7:40p 40.2 90 37.5 1.0 SSW 3.0 40.2 30.031 0.00 0 0.000
1/17/19 7:35p 40.1 90 37.4 2.0 SSW 4.0 39.9 30.035 0.00 0 0.000
1/17/19 7:30p 40.1 90 37.4 1.0 SSW 4.0 40.1 30.030 0.00 0 0.000
1/17/19 7:25p 40.1 90 37.4 2.0 SSW 4.0 39.9 30.027 0.00 0 0.000
1/17/19 7:20p 40.0 90 37.3 2.0 S 5.0 39.8 30.024 0.00 0 0.000
1/17/19 7:15p 40.0 90 37.3 2.0 SSW 4.0 39.8 30.026 0.00 0 0.000
1/17/19 7:10p 39.9 90 37.2 2.0 SSW 5.0 39.7 30.026 0.00 0 0.000
1/17/19 7:05p 39.9 90 37.2 2.0 SSW 4.0 39.7 30.026 0.00 0 0.000
1/17/19 7:00p 39.9 90 37.2 3.0 SSW 5.0 38.3 30.026 0.00 0 0.000
1/17/19 6:55p 39.8 90 37.1 2.0 SSW 4.0 39.5 30.028 0.00 0 0.000
1/17/19 6:50p 39.7 90 37.0 2.0 SSW 3.0 39.4 30.029 0.00 0 0.000
1/17/19 6:45p 39.7 90 37.0 1.0 SSW 4.0 39.7 30.025 0.00 0 0.000
1/17/19 6:40p 39.6 90 36.9 2.0 SSW 3.0 39.3 30.023 0.00 0 0.000
1/17/19 6:35p 39.6 90 36.9 2.0 S 5.0 39.3 30.021 0.00 0 0.000
1/17/19 6:30p 39.6 90 36.9 1.0 S 2.0 39.6 30.021 0.00 0 0.000
1/17/19 6:25p 39.6 90 36.9 2.0 S 5.0 39.3 30.015 0.00 0 0.000
1/17/19 6:20p 39.6 90 36.9 2.0 SSW 3.0 39.3 30.017 0.01 0 0.000
1/17/19 6:15p 39.5 90 36.8 2.0 S 4.0 39.2 30.015 0.00 0 0.000
1/17/19 6:10p 39.5 90 36.8 2.0 S 4.0 39.2 30.015 0.00 0 0.000
1/17/19 6:05p 39.4 90 36.7 2.0 S 4.0 39.1 30.012 0.00 0 0.000
1/17/19 6:00p 39.5 89 36.5 2.0 S 4.0 39.2 30.011 0.00 0 0.000
1/17/19 5:55p 39.4 89 36.4 2.0 SSW 4.0 39.1 30.010 0.00 0 0.000
1/17/19 5:50p 39.4 89 36.4 2.0 SSW 4.0 39.1 30.009 0.00 0 0.000
1/17/19 5:45p 39.4 89 36.4 2.0 SSE 3.0 39.1 30.007 0.00 0 0.000
1/17/19 5:40p 39.4 89 36.4 2.0 SSW 5.0 39.1 30.007 0.00 0 0.000
1/17/19 5:35p 39.4 89 36.4 2.0 S 3.0 39.1 30.005 0.00 0 0.000
1/17/19 5:30p 39.3 89 36.3 2.0 S 5.0 39.0 30.001 0.00 0 0.000
1/17/19 5:25p 39.3 89 36.3 2.0 S 4.0 39.0 30.001 0.00 0 0.000
1/17/19 5:20p 39.3 89 36.3 1.0 S 4.0 39.3 29.999 0.00 0 0.000
1/17/19 5:15p 39.3 89 36.3 3.0 SSW 5.0 37.6 30.001 0.00 0 0.000
1/17/19 5:10p 39.3 89 36.3 2.0 S 5.0 39.0 30.002 0.00 3 0.000
1/17/19 5:05p 39.3 89 36.3 3.0 S 7.0 37.6 30.003 0.01 3 0.000
1/17/19 5:00p 39.3 89 36.3 2.0 S 7.0 39.0 30.004 0.00 0 0.000
1/17/19 4:55p 39.3 89 36.3 2.0 S 6.0 39.0 30.007 0.00 0 0.000
1/17/19 4:50p 39.2 89 36.2 2.0 SSW 4.0 38.9 30.007 0.00 5 0.000
1/17/19 4:45p 39.2 89 36.2 2.0 SSW 4.0 38.9 30.007 0.00 7 0.000
1/17/19 4:40p 39.1 89 36.1 2.0 S 4.0 38.8 30.009 0.00 9 0.000
1/17/19 4:35p 39.1 89 36.1 2.0 S 5.0 38.8 30.007 0.00 12 0.000
1/17/19 4:30p 39.1 89 36.1 2.0 S 4.0 38.8 30.006 0.00 16 0.000
1/17/19 4:25p 39.0 89 36.0 2.0 SE 5.0 38.7 30.007 0.00 16 0.000
1/17/19 4:20p 38.9 89 35.9 2.0 SE 4.0 38.6 30.008 0.00 16 0.000
1/17/19 4:15p 38.8 89 35.8 2.0 SSE 4.0 38.4 30.009 0.00 16 0.000
1/17/19 4:10p 38.7 89 35.7 2.0 SSE 3.0 38.3 30.013 0.00 17 0.000
1/17/19 4:05p 38.6 89 35.6 2.0 S 4.0 38.2 30.013 0.00 17 0.000
1/17/19 4:00p 38.6 89 35.6 1.0 SE 3.0 38.6 30.017 0.01 18 0.000
1/17/19 3:55p 38.5 89 35.5 1.0 SE 2.0 38.5 30.019 0.00 16 0.000
1/17/19 3:50p 38.4 89 35.4 1.0 SE 4.0 38.4 30.019 0.00 20 0.000
1/17/19 3:45p 38.4 89 35.4 1.0 SSE 2.0 38.4 30.019 0.00 18 0.000
1/17/19 3:40p 38.3 89 35.3 1.0 SSE 3.0 38.3 30.020 0.01 14 0.000
1/17/19 3:35p 38.3 89 35.3 1.0 SSE 2.0 38.3 30.021 0.00 13 0.000
1/17/19 3:30p 38.3 89 35.3 2.0 SSE 3.0 37.9 30.022 0.00 12 0.000
1/17/19 3:25p 38.3 89 35.3 1.0 S 5.0 38.3 30.022 0.00 13 0.000
1/17/19 3:20p 38.3 89 35.3 1.0 SSE 2.0 38.3 30.022 0.00 16 0.000
1/17/19 3:15p 38.3 89 35.3 2.0 SE 3.0 37.9 30.021 0.00 18 0.000
1/17/19 3:10p 38.2 89 35.2 2.0 S 4.0 37.8 30.019 0.00 24 0.000
1/17/19 3:05p 38.2 89 35.2 2.0 SE 4.0 37.8 30.019 0.00 24 0.000
1/17/19 3:00p 38.1 89 35.1 2.0 SSE 3.0 37.7 30.019 0.00 22 0.001
1/17/19 2:55p 38.1 89 35.1 1.0 SSE 2.0 38.1 30.021 0.00 21 0.000
1/17/19 2:50p 38.1 89 35.1 2.0 SE 3.0 37.7 30.022 0.00 23 0.000
1/17/19 2:45p 38.0 89 35.0 2.0 SE 6.0 37.6 30.023 0.00 23 0.000
1/17/19 2:40p 37.9 89 34.9 1.0 SE 3.0 37.9 30.024 0.00 27 0.000
1/17/19 2:35p 37.9 89 34.9 1.0 ESE 2.0 37.9 30.026 0.00 29 0.000
1/17/19 2:30p 37.8 89 34.8 1.0 ESE 3.0 37.8 30.026 0.00 35 0.000
1/17/19 2:25p 37.8 89 34.8 1.0 ESE 2.0 37.8 30.024 0.01 36 0.000
1/17/19 2:20p 37.7 89 34.8 2.0 ESE 5.0 37.2 30.025 0.00 32 0.000
1/17/19 2:15p 37.7 89 34.8 2.0 SSE 3.0 37.2 30.031 0.00 29 0.000
1/17/19 2:10p 37.7 89 34.8 2.0 ESE 4.0 37.2 30.033 0.00 24 0.000
1/17/19 2:05p 37.7 89 34.8 3.0 ESE 5.0 35.8 30.036 0.00 31 0.000
1/17/19 2:00p 37.7 89 34.8 2.0 ESE 4.0 37.2 30.029 0.00 52 0.002
1/17/19 1:55p 37.7 89 34.8 2.0 ESE 4.0 37.2 30.029 0.00 54 0.000
1/17/19 1:50p 37.6 89 34.7 3.0 SE 6.0 35.7 30.034 0.00 82 0.000
1/17/19 1:45p 37.5 89 34.6 3.0 ESE 7.0 35.5 30.039 0.00 85 0.000
1/17/19 1:40p 37.5 89 34.6 2.0 SSE 5.0 37.0 30.048 0.00 90 0.000
1/17/19 1:35p 37.4 89 34.5 3.0 ESE 7.0 35.4 30.047 0.00 126 0.000
1/17/19 1:30p 37.4 89 34.5 3.0 ESE 6.0 35.4 30.051 0.00 121 0.000
1/17/19 1:25p 37.3 89 34.4 2.0 SE 4.0 36.8 30.054 0.00 118 0.000
1/17/19 1:20p 37.2 89 34.3 2.0 SE 5.0 36.7 30.061 0.00 130 0.000
1/17/19 1:15p 37.1 89 34.2 2.0 ESE 3.0 36.6 30.065 0.00 122 0.000
1/17/19 1:10p 36.9 89 34.0 3.0 SE 4.0 34.9 30.068 0.00 115 0.000
1/17/19 1:05p 36.9 89 34.0 3.0 SE 7.0 34.9 30.074 0.01 116 0.000
1/17/19 1:00p 36.8 89 33.9 2.0 SE 3.0 36.2 30.079 0.00 114 0.002
1/17/19 12:55p 36.6 89 33.7 3.0 SE 6.0 34.5 30.087 0.00 118 0.000
1/17/19 12:50p 36.6 89 33.7 2.0 ESE 4.0 36.0 30.092 0.00 101 0.000
1/17/19 12:45p 36.5 89 33.6 2.0 ESE 4.0 35.9 30.097 0.01 99 0.000
1/17/19 12:40p 36.5 89 33.6 3.0 ESE 6.0 34.4 30.100 0.00 107 0.000
1/17/19 12:35p 36.5 89 33.6 2.0 SE 3.0 35.9 30.104 0.00 114 0.000
1/17/19 12:30p 36.4 89 33.5 3.0 ESE 6.0 34.3 30.106 0.00 131 0.000
1/17/19 12:25p 36.3 89 33.4 3.0 SE 6.0 34.2 30.109 0.00 139 0.000
1/17/19 12:20p 36.2 89 33.3 2.0 SE 4.0 35.6 30.112 0.00 159 0.000
1/17/19 12:15p 36.1 89 33.2 3.0 ESE 4.0 34.0 30.119 0.00 115 0.000
1/17/19 12:10p 36.0 89 33.1 3.0 SE 7.0 33.8 30.123 0.00 131 0.000
1/17/19 12:05p 35.8 89 32.9 2.0 ESE 4.0 35.1 30.129 0.00 127 0.000
1/17/19 12:00p 35.7 89 32.8 3.0 SE 5.0 33.5 30.133 0.00 94 0.001
1/17/19 11:55a 35.6 89 32.7 3.0 ESE 4.0 33.4 30.135 0.00 96 0.000
1/17/19 11:50a 35.5 89 32.6 2.0 ESE 4.0 34.8 30.137 0.00 103 0.000
1/17/19 11:45a 35.4 89 32.5 3.0 SE 6.0 33.2 30.137 0.01 85 0.000
1/17/19 11:40a 35.3 89 32.4 3.0 SE 5.0 33.0 30.144 0.00 70 0.000
1/17/19 11:35a 35.2 89 32.3 3.0 ESE 6.0 32.9 30.145 0.00 68 0.000
1/17/19 11:30a 35.2 89 32.3 3.0 SE 6.0 32.9 30.148 0.00 54 0.000
1/17/19 11:25a 35.2 89 32.3 3.0 ESE 7.0 32.9 30.150 0.00 59 0.000
1/17/19 11:20a 35.2 89 32.3 3.0 SE 7.0 32.9 30.152 0.00 69 0.000
1/17/19 11:15a 35.1 89 32.2 3.0 ESE 6.0 32.8 30.156 0.00 83 0.000
1/17/19 11:10a 35.1 89 32.2 3.0 SE 7.0 32.8 30.158 0.00 82 0.000
1/17/19 11:05a 35.1 89 32.2 3.0 SE 7.0 32.8 30.159 0.00 82 0.000
1/17/19 11:00a 35.0 89 32.1 3.0 SE 7.0 32.7 30.163 0.00 87 0.001
1/17/19 10:55a 34.9 89 32.0 3.0 SE 5.0 32.6 30.162 0.00 80 0.000
1/17/19 10:50a 34.8 89 31.9 2.0 SE 4.0 34.0 30.163 0.00 68 0.000
1/17/19 10:45a 34.7 89 31.8 2.0 SE 4.0 33.9 30.161 0.00 70 0.000
1/17/19 10:40a 34.6 89 31.7 2.0 SE 5.0 33.8 30.161 0.00 70 0.000
1/17/19 10:35a 34.5 89 31.6 2.0 SE 5.0 33.7 30.159 0.00 76 0.000
1/17/19 10:30a 34.4 89 31.5 3.0 SE 6.0 32.0 30.156 0.00 70 0.000
1/17/19 10:25a 34.3 89 31.4 3.0 ESE 6.0 31.9 30.153 0.00 60 0.000
1/17/19 10:20a 34.3 89 31.4 2.0 ESE 5.0 33.5 30.152 0.00 50 0.000
1/17/19 10:15a 34.2 89 31.3 3.0 ESE 7.0 31.8 30.147 0.00 43 0.000
1/17/19 10:10a 34.2 89 31.3 2.0 ESE 4.0 33.4 30.151 0.00 41 0.000
1/17/19 10:05a 34.1 89 31.2 3.0 ESE 7.0 31.7 30.153 0.00 33 0.000
1/17/19 10:00a 34.1 89 31.2 3.0 ESE 6.0 31.7 30.153 0.00 26 0.001
1/17/19 9:55a 34.1 89 31.2 3.0 ESE 7.0 31.7 30.152 0.00 21 0.000
1/17/19 9:50a 34.1 89 31.2 3.0 ESE 7.0 31.7 30.157 0.00 21 0.000
1/17/19 9:45a 34.0 89 31.1 2.0 SE 4.0 33.2 30.155 0.00 24 0.000
1/17/19 9:40a 34.0 89 31.1 3.0 SE 6.0 31.6 30.156 0.00 33 0.000
1/17/19 9:35a 34.0 89 31.1 3.0 SE 7.0 31.6 30.152 0.00 35 0.000
1/17/19 9:30a 34.0 89 31.1 2.0 SE 4.0 33.2 30.151 0.00 36 0.000
1/17/19 9:25a 33.9 89 31.0 3.0 ESE 6.0 31.5 30.146 0.00 63 0.000
1/17/19 9:20a 33.8 89 30.9 3.0 ESE 9.0 31.4 30.147 0.00 64 0.000
1/17/19 9:15a 33.8 89 30.9 3.0 ESE 7.0 31.4 30.152 0.00 49 0.000
1/17/19 9:10a 33.7 89 30.8 3.0 SE 7.0 31.2 30.152 0.00 44 0.000
1/17/19 9:05a 33.7 89 30.8 3.0 ESE 7.0 31.2 30.154 0.00 37 0.000
1/17/19 9:00a 33.6 88 30.4 2.0 ESE 6.0 32.7 30.152 0.00 29 0.000
1/17/19 8:55a 33.6 88 30.4 2.0 ESE 7.0 32.7 30.149 0.00 27 0.000
1/17/19 8:50a 33.5 88 30.3 3.0 ESE 8.0 31.0 30.149 0.00 23 0.000
1/17/19 8:45a 33.5 88 30.3 4.0 ESE 8.0 29.8 30.155 0.00 18 0.000
1/17/19 8:40a 33.5 88 30.3 3.0 ESE 8.0 31.0 30.159 0.00 14 0.000
1/17/19 8:35a 33.5 88 30.3 4.0 ESE 8.0 29.8 30.158 0.00 14 0.000
1/17/19 8:30a 33.5 88 30.3 4.0 ESE 8.0 29.8 30.162 0.00 12 0.000
1/17/19 8:25a 33.4 88 30.2 2.0 ESE 4.0 32.5 30.163 0.00 12 0.000
1/17/19 8:20a 33.4 88 30.2 3.0 E 4.0 30.9 30.164 0.00 9 0.000
1/17/19 8:15a 33.4 88 30.2 2.0 ESE 6.0 32.5 30.167 0.01 5 0.000
1/17/19 8:10a 33.4 88 30.2 3.0 ESE 6.0 30.9 30.172 0.00 0 0.000
1/17/19 8:05a 33.4 88 30.2 2.0 ESE 5.0 32.5 30.175 0.00 0 0.000
1/17/19 8:00a 33.4 88 30.2 2.0 E 6.0 32.5 30.175 0.01 0 0.000
1/17/19 7:55a 33.5 88 30.3 3.0 ESE 6.0 31.0 30.177 0.00 0 0.000
1/17/19 7:50a 33.5 88 30.3 3.0 ESE 6.0 31.0 30.177 0.01 0 0.000
1/17/19 7:45a 33.5 88 30.3 3.0 ESE 7.0 31.0 30.181 0.00 0 0.000
1/17/19 7:40a 33.5 88 30.3 3.0 ESE 6.0 31.0 30.184 0.00 0 0.000
1/17/19 7:35a 33.5 88 30.3 2.0 ESE 4.0 32.6 30.184 0.00 0 0.000
1/17/19 7:30a 33.6 88 30.4 3.0 ESE 7.0 31.1 30.182 0.00 0 0.000
1/17/19 7:25a 33.5 88 30.3 4.0 ESE 7.0 29.8 30.186 0.00 0 0.000
1/17/19 7:20a 33.6 88 30.4 4.0 ESE 7.0 29.9 30.187 0.00 0 0.000
1/17/19 7:15a 33.5 88 30.3 3.0 ESE 6.0 31.0 30.188 0.01 0 0.000
1/17/19 7:10a 33.5 88 30.3 4.0 ESE 8.0 29.8 30.190 0.00 0 0.000
1/17/19 7:05a 33.4 88 30.2 3.0 ESE 8.0 30.9 30.191 0.00 0 0.000
1/17/19 7:00a 33.4 88 30.2 3.0 ESE 7.0 30.9 30.192 0.00 0 0.000
1/17/19 6:55a 33.4 87 29.9 3.0 ESE 8.0 30.9 30.193 0.00 0 0.000
1/17/19 6:50a 33.3 87 29.8 3.0 ESE 7.0 30.8 30.195 0.00 0 0.000
1/17/19 6:45a 33.3 87 29.8 2.0 SE 6.0 32.4 30.193 0.00 0 0.000
1/17/19 6:40a 33.4 87 29.9 3.0 ESE 8.0 30.9 30.192 0.00 0 0.000
1/17/19 6:35a 33.4 87 29.9 4.0 ESE 8.0 29.7 30.190 0.00 0 0.000
1/17/19 6:30a 33.2 87 29.8 4.0 ESE 8.0 29.5 30.188 0.00 0 0.000
1/17/19 6:25a 33.2 87 29.8 4.0 ESE 8.0 29.5 30.190 0.00 0 0.000
1/17/19 6:20a 33.2 87 29.8 3.0 E 7.0 30.7 30.196 0.00 0 0.000
1/17/19 6:15a 33.3 87 29.8 3.0 ESE 6.0 30.8 30.198 0.00 0 0.000
1/17/19 6:10a 33.2 87 29.8 4.0 ESE 7.0 29.5 30.198 0.00 0 0.000
1/17/19 6:05a 33.1 87 29.7 3.0 ESE 7.0 30.6 30.202 0.00 0 0.000
1/17/19 6:00a 33.1 87 29.7 3.0 ESE 6.0 30.6 30.202 0.00 0 0.000
1/17/19 5:55a 33.1 87 29.7 3.0 ESE 7.0 30.6 30.203 0.00 0 0.000
1/17/19 5:50a 33.1 87 29.7 2.0 ESE 4.0 32.2 30.209 0.00 0 0.000
1/17/19 5:45a 33.1 87 29.7 3.0 ESE 7.0 30.6 30.216 0.00 0 0.000
1/17/19 5:40a 33.1 87 29.7 3.0 ESE 4.0 30.6 30.218 0.00 0 0.000
1/17/19 5:35a 33.1 87 29.7 2.0 ESE 7.0 32.2 30.218 0.00 0 0.000
1/17/19 5:30a 33.1 87 29.7 3.0 ESE 7.0 30.6 30.216 0.00 0 0.000
1/17/19 5:25a 33.0 87 29.6 2.0 ESE 3.0 32.1 30.222 0.00 0 0.000
1/17/19 5:20a 33.0 87 29.6 2.0 ESE 3.0 32.1 30.223 0.00 0 0.000
1/17/19 5:15a 33.0 87 29.6 1.0 SE 4.0 33.0 30.227 0.00 0 0.000
1/17/19 5:10a 33.0 87 29.6 2.0 SE 4.0 32.1 30.228 0.00 0 0.000
1/17/19 5:05a 33.0 87 29.6 2.0 SE 4.0 32.1 30.229 0.00 0 0.000
1/17/19 5:00a 33.0 87 29.6 2.0 SE 4.0 32.1 30.230 0.00 0 0.000
1/17/19 4:55a 33.0 87 29.6 2.0 ESE 4.0 32.1 30.228 0.00 0 0.000
1/17/19 4:50a 32.9 87 29.5 2.0 ESE 4.0 32.0 30.229 0.00 0 0.000
1/17/19 4:45a 32.9 87 29.5 2.0 E 4.0 32.0 30.233 0.00 0 0.000
1/17/19 4:40a 32.9 87 29.5 3.0 ESE 7.0 30.3 30.228 0.00 0 0.000
1/17/19 4:35a 32.9 87 29.5 3.0 ESE 6.0 30.3 30.230 0.00 0 0.000
1/17/19 4:30a 32.9 87 29.5 2.0 ESE 6.0 32.0 30.232 0.00 0 0.000
1/17/19 4:25a 32.8 87 29.4 3.0 ESE 6.0 30.2 30.233 0.00 0 0.000
1/17/19 4:20a 32.8 87 29.4 2.0 ESE 4.0 31.8 30.234 0.00 0 0.000
1/17/19 4:15a 32.8 87 29.4 2.0 E 4.0 31.8 30.234 0.00 0 0.000
1/17/19 4:10a 32.8 87 29.4 2.0 ESE 3.0 31.8 30.236 0.00 0 0.000
1/17/19 4:05a 32.8 87 29.4 3.0 ESE 7.0 30.2 30.237 0.00 0 0.000
1/17/19 4:00a 32.7 87 29.3 3.0 E 7.0 30.1 30.242 0.00 0 0.000
1/17/19 3:55a 32.7 87 29.3 3.0 ESE 6.0 30.1 30.245 0.00 0 0.000
1/17/19 3:50a 32.7 87 29.3 3.0 ESE 7.0 30.1 30.247 0.00 0 0.000
1/17/19 3:45a 32.7 87 29.3 3.0 ESE 7.0 30.1 30.248 0.00 0 0.000
1/17/19 3:40a 32.7 86 29.0 3.0 ESE 7.0 30.1 30.249 0.00 0 0.000
1/17/19 3:35a 32.7 86 29.0 3.0 ESE 8.0 30.1 30.250 0.00 0 0.000
1/17/19 3:30a 32.7 86 29.0 2.0 ESE 4.0 31.7 30.253 0.00 0 0.000
1/17/19 3:25a 32.7 86 29.0 2.0 ESE 4.0 31.7 30.258 0.00 0 0.000
1/17/19 3:20a 32.7 86 29.0 2.0 ESE 4.0 31.7 30.262 0.00 0 0.000
1/17/19 3:15a 32.7 86 29.0 2.0 ESE 4.0 31.7 30.265 0.00 0 0.000
1/17/19 3:10a 32.7 86 29.0 2.0 ESE 4.0 31.7 30.266 0.00 0 0.000
1/17/19 3:05a 32.7 87 29.3 2.0 ESE 4.0 31.7 30.266 0.00 0 0.000
1/17/19 3:00a 32.7 87 29.3 3.0 ESE 7.0 30.1 30.263 0.00 0 0.000
1/17/19 2:55a 32.6 87 29.2 2.0 ESE 4.0 31.6 30.267 0.00 0 0.000
1/17/19 2:50a 32.6 87 29.2 3.0 ESE 6.0 30.0 30.269 0.00 0 0.000
1/17/19 2:45a 32.6 87 29.2 3.0 ESE 8.0 30.0 30.266 0.00 0 0.000
1/17/19 2:40a 32.6 87 29.2 2.0 ESE 4.0 31.6 30.267 0.00 0 0.000
1/17/19 2:35a 32.5 87 29.1 4.0 ESE 12.0 28.7 30.261 0.00 0 0.000
1/17/19 2:30a 32.5 87 29.1 3.0 ESE 7.0 29.9 30.260 0.00 0 0.000
1/17/19 2:25a 32.5 87 29.1 4.0 ESE 7.0 28.7 30.257 0.00 0 0.000
1/17/19 2:20a 32.5 87 29.1 5.0 ESE 10.0 27.7 30.254 0.00 0 0.000
1/17/19 2:15a 32.4 87 29.0 5.0 ESE 8.0 27.5 30.256 0.00 0 0.000
1/17/19 2:10a 32.4 87 29.0 5.0 ESE 9.0 27.5 30.258 0.00 0 0.000
1/17/19 2:05a 32.5 87 29.1 3.0 ESE 7.0 29.9 30.257 0.00 0 0.000
1/17/19 2:00a 32.5 87 29.1 3.0 ESE 6.0 29.9 30.262 0.00 0 0.000
1/17/19 1:55a 32.5 87 29.1 3.0 ESE 7.0 29.9 30.260 0.00 0 0.000
1/17/19 1:50a 32.5 87 29.1 3.0 ESE 7.0 29.9 30.258 0.00 0 0.000
1/17/19 1:45a 32.5 87 29.1 3.0 ESE 8.0 29.9 30.261 0.00 0 0.000
1/17/19 1:40a 32.5 87 29.1 2.0 ESE 7.0 31.5 30.268 0.00 0 0.000
1/17/19 1:35a 32.5 87 29.1 3.0 ESE 9.0 29.9 30.269 0.00 0 0.000
1/17/19 1:30a 32.5 87 29.1 4.0 ESE 9.0 28.7 30.269 0.00 0 0.000
1/17/19 1:25a 32.5 87 29.1 2.0 ESE 4.0 31.5 30.269 0.00 0 0.000
1/17/19 1:20a 32.5 87 29.1 3.0 SE 8.0 29.9 30.271 0.00 0 0.000
1/17/19 1:15a 32.4 87 29.0 3.0 ESE 7.0 29.8 30.269 0.00 0 0.000
1/17/19 1:10a 32.4 87 29.0 3.0 ESE 6.0 29.8 30.271 0.00 0 0.000
1/17/19 1:05a 32.5 87 29.1 3.0 ESE 7.0 29.9 30.272 0.00 0 0.000
1/17/19 1:00a 32.5 87 29.1 3.0 ESE 6.0 29.9 30.278 0.00 0 0.000
1/17/19 12:55a 32.5 87 29.1 2.0 ESE 6.0 31.5 30.281 0.00 0 0.000
1/17/19 12:50a 32.5 87 29.1 3.0 ESE 6.0 29.9 30.282 0.00 0 0.000
1/17/19 12:45a 32.5 87 29.1 2.0 ESE 4.0 31.5 30.285 0.00 0 0.000
1/17/19 12:40a 32.5 87 29.1 2.0 ESE 3.0 31.5 30.287 0.00 0 0.000
1/17/19 12:35a 32.5 87 29.1 2.0 ESE 4.0 31.5 30.289 0.00 0 0.000
1/17/19 12:30a 32.5 87 29.1 2.0 ESE 4.0 31.5 30.292 0.00 0 0.000
1/17/19 12:25a 32.5 87 29.1 1.0 E 3.0 32.5 30.298 0.00 0 0.000
1/17/19 12:20a 32.5 87 29.1 1.0 E 3.0 32.5 30.297 0.00 0 0.000
1/17/19 12:15a 32.5 87 29.1 1.0 E 3.0 32.5 30.303 0.00 0 0.000
1/17/19 12:10a 32.5 87 29.1 1.0 ESE 3.0 32.5 30.306 0.00 0 0.000
1/17/19 12:05a 32.6 87 29.2 1.0 ESE 2.0 32.6 30.302 0.00 0 0.000
1/17/19 12:00a 32.6 87 29.2 2.0 ESE 6.0 31.6 30.298 0.00 0 0.000

12,439 Page Views